createdAt,value
2018-04-14T00:01:57.262Z,96089.78
2018-04-14T00:04:26.749Z,96087.28
2018-04-14T00:06:56.240Z,96092.07
2018-04-14T00:09:25.794Z,96086.38
2018-04-14T00:11:55.286Z,96086.91
2018-04-14T00:14:24.782Z,96088.31
2018-04-14T00:16:54.286Z,96096.81
2018-04-14T00:19:23.776Z,96092.96
2018-04-14T00:21:53.282Z,96085.59
2018-04-14T00:24:22.776Z,96090.06
2018-04-14T00:26:52.278Z,96087.27
2018-04-14T00:29:21.766Z,96089.63
2018-04-14T00:31:51.267Z,96097.44
2018-04-14T00:34:21.192Z,96100.14
2018-04-14T00:36:50.689Z,96093.44
2018-04-14T00:39:20.586Z,96105.77
2018-04-14T00:41:50.083Z,96098.58
2018-04-14T00:44:19.591Z,96106.42
2018-04-14T00:46:49.087Z,96106.03
2018-04-14T00:49:18.614Z,96107.38
2018-04-14T00:51:48.508Z,96103.61
2018-04-14T00:54:17.773Z,96103.84
2018-04-14T00:56:47.097Z,96101.02
2018-04-14T00:59:16.603Z,96109.22
2018-04-14T01:01:46.106Z,96113.27
2018-04-14T01:04:15.614Z,96114.09
2018-04-14T01:06:45.094Z,96113.13
2018-04-14T01:09:14.598Z,96109.53
2018-04-14T01:11:44.082Z,96108.95
2018-04-14T01:14:13.586Z,96101.59
2018-04-14T01:16:42.840Z,96101.30
2018-04-14T01:19:12.122Z,96105.63
2018-04-14T01:21:41.611Z,96103.70
2018-04-14T01:24:11.107Z,96108.16
2018-04-14T01:26:40.593Z,96109.84
2018-04-14T01:29:10.478Z,96111.24
2018-04-14T01:31:39.972Z,96112.18
2018-04-14T01:34:09.457Z,96109.27
2018-04-14T01:36:38.945Z,96104.58
2018-04-14T01:39:56.704Z,96111.23
2018-04-14T01:42:25.963Z,96112.03
2018-04-14T01:44:55.861Z,96113.56
2018-04-14T01:47:25.749Z,96115.66
2018-04-14T01:49:55.242Z,96107.75
2018-04-14T01:52:24.798Z,96111.38
2018-04-14T01:54:54.701Z,96116.09
2018-04-14T01:57:24.180Z,96112.86
2018-04-14T01:59:53.677Z,96116.69
2018-04-14T02:02:23.168Z,96123.20
2018-04-14T02:04:52.726Z,96116.41
2018-04-14T02:07:22.253Z,96114.31
2018-04-14T02:09:52.142Z,96120.42
2018-04-14T02:12:21.638Z,96120.00
2018-04-14T02:14:51.144Z,96118.59
2018-04-14T02:17:20.640Z,96116.47
2018-04-14T02:19:50.112Z,96115.57
2018-04-14T02:22:19.627Z,96108.94
2018-04-14T02:24:49.110Z,96117.48
2018-04-14T02:27:18.601Z,96122.53
2018-04-14T02:29:48.511Z,96132.05
2018-04-14T02:32:18.389Z,96140.27
2018-04-14T02:34:47.880Z,96142.13
2018-04-14T02:37:17.580Z,96136.28
2018-04-14T02:39:47.082Z,96138.54
2018-04-14T02:42:16.344Z,96132.78
2018-04-14T02:44:46.246Z,96129.21
2018-04-14T02:47:16.175Z,96132.41
2018-04-14T02:49:46.268Z,96134.11
2018-04-14T02:52:15.748Z,96138.05
2018-04-14T02:54:45.435Z,96141.39
2018-04-14T02:57:14.922Z,96140.04
2018-04-14T02:59:44.817Z,96133.62
2018-04-14T03:02:14.312Z,96133.80
2018-04-14T03:04:43.825Z,96134.61
2018-04-14T03:07:13.328Z,96138.77
2018-04-14T03:09:42.831Z,96140.73
2018-04-14T03:12:12.320Z,96142.23
2018-04-14T03:14:41.820Z,96142.04
2018-04-14T03:17:11.310Z,96138.32
2018-04-14T03:19:40.806Z,96142.95
2018-04-14T03:22:10.298Z,96139.50
2018-04-14T03:24:39.785Z,96137.61
2018-04-14T03:27:09.692Z,96140.55
2018-04-14T03:29:39.246Z,96137.94
2018-04-14T03:32:08.738Z,96130.14
2018-04-14T03:34:38.240Z,96138.59
2018-04-14T03:37:07.739Z,96140.09
2018-04-14T03:39:37.222Z,96137.39
2018-04-14T03:42:07.128Z,96139.95
2018-04-14T03:44:36.618Z,96143.50
2018-04-14T03:47:06.306Z,96142.33
2018-04-14T03:49:35.576Z,96146.22
2018-04-14T03:52:05.081Z,96153.48
2018-04-14T03:54:34.583Z,96155.09
2018-04-14T03:57:04.078Z,96157.80
2018-04-14T03:59:33.970Z,96158.26
2018-04-14T04:02:03.467Z,96158.52
2018-04-14T04:04:32.989Z,96166.86
2018-04-14T04:07:02.688Z,96172.83
2018-04-14T04:09:32.174Z,96169.02
2018-04-14T04:12:01.671Z,96171.42
2018-04-14T04:14:31.360Z,96174.28
2018-04-14T04:17:00.846Z,96176.10
2018-04-14T04:19:47.168Z,96180.58
2018-04-14T04:22:33.406Z,96178.80
2018-04-14T04:28:13.567Z,96173.73
2018-04-14T04:30:43.591Z,96184.64
2018-04-14T04:33:12.750Z,96186.38
2018-04-14T04:35:42.237Z,96190.48
2018-04-14T04:38:11.742Z,96188.88
2018-04-14T04:40:41.241Z,96190.15
2018-04-14T04:43:11.135Z,96197.08
2018-04-14T04:45:40.610Z,96201.37
2018-04-14T04:48:10.099Z,96200.84
2018-04-14T04:50:39.597Z,96201.64
2018-04-14T04:53:09.283Z,96198.59
2018-04-14T04:55:39.215Z,96196.42
2018-04-14T04:58:08.697Z,96198.69
2018-04-14T05:00:38.592Z,96203.87
2018-04-14T05:03:08.073Z,96214.64
2018-04-14T05:05:37.575Z,96214.21
2018-04-14T05:08:07.079Z,96224.97
2018-04-14T05:10:36.568Z,96219.41
2018-04-14T05:13:06.052Z,96224.28
2018-04-14T05:15:36.499Z,96231.27
2018-04-14T05:18:06.001Z,96226.53
2018-04-14T05:20:35.483Z,96227.39
2018-04-14T05:23:05.394Z,96238.25
2018-04-14T05:25:35.287Z,96237.41
2018-04-14T05:28:04.537Z,96235.00
2018-04-14T05:30:34.277Z,96237.35
2018-04-14T05:33:03.964Z,96238.17
2018-04-14T05:35:33.721Z,96242.14
2018-04-14T05:38:03.204Z,96244.09
2018-04-14T05:40:33.419Z,96253.77
2018-04-14T05:43:02.911Z,96261.52
2018-04-14T05:45:32.400Z,96261.00
2018-04-14T05:48:01.893Z,96253.83
2018-04-14T05:50:31.388Z,96250.72
2018-04-14T05:53:01.283Z,96255.72
2018-04-14T05:55:30.796Z,96259.62
2018-04-14T05:58:00.292Z,96256.19
2018-04-14T06:00:29.803Z,96260.00
2018-04-14T06:02:59.078Z,96261.30
2018-04-14T06:05:28.567Z,96259.78
2018-04-14T06:07:58.088Z,96264.04
2018-04-14T06:10:27.576Z,96269.97
2018-04-14T06:12:57.091Z,96277.73
2018-04-14T06:15:26.597Z,96285.59
2018-04-14T06:17:56.157Z,96289.59
2018-04-14T06:20:26.069Z,96286.77
2018-04-14T06:22:55.979Z,96288.53
2018-04-14T06:25:25.654Z,96290.33
2018-04-14T06:27:55.144Z,96290.59
2018-04-14T06:30:36.116Z,96299.16
2018-04-14T06:33:05.606Z,96292.58
2018-04-14T06:35:35.110Z,96287.77
2018-04-14T06:38:04.598Z,96295.38
2018-04-14T06:40:34.111Z,96298.23
2018-04-14T06:43:03.605Z,96294.72
2018-04-14T06:45:33.494Z,96299.56
2018-04-14T06:48:02.664Z,96302.02
2018-04-14T06:50:32.161Z,96308.80
2018-04-14T06:53:01.661Z,96309.23
2018-04-14T06:55:31.163Z,96308.59
2018-04-14T06:58:00.667Z,96308.07
2018-04-14T07:00:30.165Z,96308.80
2018-04-14T07:02:59.663Z,96308.20
2018-04-14T07:05:29.171Z,96310.15
2018-04-14T07:07:58.455Z,96316.38
2018-04-14T07:10:28.347Z,96315.56
2018-04-14T07:12:57.839Z,96322.66
2018-04-14T07:15:27.371Z,96327.97
2018-04-14T07:17:57.284Z,96325.80
2018-04-14T07:20:27.193Z,96320.37
2018-04-14T07:22:57.083Z,96323.39
2018-04-14T07:25:26.561Z,96328.95
2018-04-14T07:27:56.077Z,96331.39
2018-04-14T07:30:25.581Z,96332.98
2018-04-14T07:32:55.088Z,96330.06
2018-04-14T07:35:24.590Z,96338.75
2018-04-14T07:37:54.093Z,96332.63
2018-04-14T07:40:23.673Z,96336.81
2018-04-14T07:42:53.179Z,96330.84
2018-04-14T07:45:22.841Z,96340.00
2018-04-14T07:47:52.342Z,96338.34
2018-04-14T07:50:21.840Z,96338.08
2018-04-14T07:52:51.407Z,96343.02
2018-04-14T07:55:20.927Z,96337.16
2018-04-14T07:57:50.195Z,96343.03
2018-04-14T08:00:20.087Z,96331.20
2018-04-14T08:02:49.585Z,96339.59
2018-04-14T08:05:19.086Z,96335.51
2018-04-14T08:14:36.755Z,96324.56
2018-04-14T08:17:06.461Z,96323.56
2018-04-14T08:19:35.971Z,96326.73
2018-04-14T08:22:05.500Z,96326.05
2018-04-14T08:24:34.994Z,96321.75
2018-04-14T08:27:04.534Z,96323.75
2018-04-14T08:29:34.647Z,96325.00
2018-04-14T08:32:04.564Z,96326.32
2018-04-14T08:34:34.479Z,96322.70
2018-04-14T08:37:04.391Z,96320.33
2018-04-14T08:39:34.307Z,96320.78
2018-04-14T08:42:04.220Z,96316.72
2018-04-14T08:44:34.121Z,96308.03
2018-04-14T08:47:03.606Z,96312.92
2018-04-14T08:49:33.115Z,96315.05
2018-04-14T08:52:02.619Z,96304.75
2018-04-14T08:54:32.130Z,96303.86
2018-04-14T08:57:01.819Z,96304.08
2018-04-14T08:59:31.323Z,96300.48
2018-04-14T09:02:00.892Z,96300.23
2018-04-14T09:04:30.534Z,96298.45
2018-04-14T09:07:00.099Z,96295.38
2018-04-14T09:09:29.997Z,96297.80
2018-04-14T09:11:59.503Z,96296.26
2018-04-14T09:14:29.013Z,96295.59
2018-04-14T09:17:55.665Z,96297.25
2018-04-14T09:20:25.338Z,96303.10
2018-04-14T09:22:54.834Z,96290.73
2018-04-14T09:25:24.344Z,96296.27
2018-04-14T09:27:53.843Z,96285.94
2018-04-14T09:30:23.360Z,96279.63
2018-04-14T09:32:52.862Z,96292.44
2018-04-14T09:35:22.371Z,96294.43
2018-04-14T09:37:51.872Z,96295.13
2018-04-14T09:40:21.391Z,96285.28
2018-04-14T09:42:50.951Z,96292.00
2018-04-14T09:45:20.400Z,96278.56
2018-04-14T09:47:49.887Z,96274.97
2018-04-14T09:50:19.397Z,96286.84
2018-04-14T09:52:48.902Z,96278.01
2018-04-14T09:55:18.444Z,96280.31
2018-04-14T09:57:47.952Z,96279.87
2018-04-14T10:00:22.807Z,96272.95
2018-04-14T10:02:52.492Z,96277.95
2018-04-14T10:05:22.201Z,96270.78
2018-04-14T10:07:51.708Z,96258.52
2018-04-14T10:10:21.208Z,96264.86
2018-04-14T10:12:50.911Z,96260.88
2018-04-14T10:15:20.430Z,96251.33
2018-04-14T10:17:49.934Z,96252.96
2018-04-14T10:20:19.462Z,96253.91
2018-04-14T10:22:49.357Z,96247.69
2018-04-14T10:25:18.895Z,96234.85
2018-04-14T10:27:48.171Z,96229.97
2018-04-14T10:30:17.431Z,96234.98
2018-04-14T10:32:46.944Z,96236.25
2018-04-14T10:35:16.659Z,96232.42
2018-04-14T10:37:46.217Z,96231.70
2018-04-14T10:40:15.878Z,96233.98
2018-04-14T10:42:45.377Z,96231.69
2018-04-14T10:45:14.874Z,96223.98
2018-04-14T10:47:44.373Z,96234.17
2018-04-14T10:50:13.959Z,96217.28
2018-04-14T10:52:43.474Z,96215.50
2018-04-14T10:55:13.012Z,96221.37
2018-04-14T10:57:42.714Z,96219.78
2018-04-14T11:00:12.218Z,96216.63
2018-04-14T11:02:41.768Z,96216.34
2018-04-14T11:05:11.682Z,96205.42
2018-04-14T11:07:41.589Z,96211.93
2018-04-14T11:10:11.079Z,96198.27
2018-04-14T11:12:40.577Z,96208.21
2018-04-14T11:15:10.076Z,96204.26
2018-04-14T11:17:39.579Z,96197.17
2018-04-14T11:20:09.101Z,96201.03
2018-04-14T11:22:38.609Z,96207.27
2018-04-14T11:25:08.288Z,96219.59
2018-04-14T11:27:37.823Z,96195.44
2018-04-14T11:30:07.365Z,96215.09
2018-04-14T11:32:36.860Z,96200.33
2018-04-14T11:35:06.776Z,96204.46
2018-04-14T11:37:36.716Z,96199.42
2018-04-14T11:40:06.232Z,96191.02
2018-04-14T11:42:35.737Z,96185.17
2018-04-14T11:45:05.238Z,96202.69
2018-04-14T11:47:34.752Z,96198.28
2018-04-14T11:50:04.024Z,96188.52
2018-04-14T11:52:33.538Z,96199.47
2018-04-14T11:55:03.050Z,96211.77
2018-04-14T11:57:32.548Z,96198.09
2018-04-14T12:00:02.058Z,96212.22
2018-04-14T12:02:31.250Z,96204.43
2018-04-14T12:05:00.760Z,96197.95
2018-04-14T12:07:30.034Z,96194.09
2018-04-14T12:09:59.964Z,96197.59
2018-04-14T12:12:28.992Z,96200.48
2018-04-14T12:14:58.500Z,96205.84
2018-04-14T12:17:28.010Z,96208.07
2018-04-14T12:19:57.506Z,96208.24
2018-04-14T12:22:27.006Z,96214.70
2018-04-14T12:24:56.511Z,96201.25
2018-04-14T12:27:26.018Z,96193.70
2018-04-14T12:29:55.534Z,96203.85
2018-04-14T12:32:25.046Z,96207.77
2018-04-14T12:34:54.560Z,96216.52
2018-04-14T12:37:24.062Z,96223.93
2018-04-14T12:39:53.224Z,96202.05
2018-04-14T12:42:22.737Z,96207.61
2018-04-14T12:44:52.252Z,96219.16
2018-04-14T12:47:21.763Z,96220.06
2018-04-14T12:49:51.484Z,96211.20
2018-04-14T12:52:20.978Z,96200.52
2018-04-14T12:54:50.485Z,96192.19
2018-04-14T12:57:19.082Z,96191.63
2018-04-14T12:59:48.577Z,96194.71
2018-04-14T13:02:17.879Z,96181.03
2018-04-14T13:04:47.405Z,96198.39
2018-04-14T13:07:17.154Z,96173.20
2018-04-14T13:09:47.066Z,96169.91
2018-04-14T13:12:16.989Z,96172.45
2018-04-14T13:14:46.904Z,96155.72
2018-04-14T13:17:16.830Z,96152.06
2018-04-14T13:19:46.410Z,96157.19
2018-04-14T13:22:15.918Z,96142.70
2018-04-14T13:24:45.839Z,96135.22
2018-04-14T13:27:15.543Z,96151.97
2018-04-14T13:29:45.457Z,96134.75
2018-04-14T13:32:15.367Z,96119.50
2018-04-14T13:34:44.878Z,96136.22
2018-04-14T13:37:14.781Z,96130.86
2018-04-14T13:39:44.292Z,96118.89
2018-04-14T13:42:14.235Z,96122.32
2018-04-14T13:44:44.369Z,96115.44
2018-04-14T13:47:13.927Z,96112.66
2018-04-14T13:49:43.576Z,96113.30
2018-04-14T13:52:13.094Z,96108.37
2018-04-14T13:54:42.596Z,96100.31
2018-04-14T13:57:12.128Z,96109.45
2018-04-14T13:59:42.046Z,96108.72
2018-04-14T14:02:11.564Z,96104.01
2018-04-14T14:04:41.067Z,96099.19
2018-04-14T14:07:10.586Z,96090.96
2018-04-14T14:09:40.126Z,96080.88
2018-04-14T14:12:09.642Z,96091.16
2018-04-14T14:14:38.906Z,96089.16
2018-04-14T14:17:08.410Z,96083.92
2018-04-14T14:19:37.922Z,96091.92
2018-04-14T14:22:07.439Z,96089.43
2018-04-14T14:24:37.358Z,96084.33
2018-04-14T14:27:07.272Z,96087.77
2018-04-14T14:29:37.181Z,96080.84
2018-04-14T14:32:07.095Z,96083.60
2018-04-14T14:34:37.028Z,96075.80
2018-04-14T14:37:06.018Z,96066.44
2018-04-14T14:39:35.928Z,96066.36
2018-04-14T14:42:05.858Z,96064.34
2018-04-14T14:44:35.940Z,96056.00
2018-04-14T14:47:05.451Z,96051.15
2018-04-14T14:49:34.966Z,96040.99
2018-04-14T14:52:04.875Z,96029.81
2018-04-14T14:54:34.381Z,96025.44
2018-04-14T14:57:04.295Z,96030.48
2018-04-14T14:59:33.814Z,96031.39
2018-04-14T15:02:03.713Z,96027.75
2018-04-14T15:04:33.238Z,96025.91
2018-04-14T15:07:02.947Z,96027.00
2018-04-14T15:09:32.863Z,96027.11
2018-04-14T15:12:02.764Z,96025.72
2018-04-14T15:14:32.671Z,96034.05
2018-04-14T15:17:02.206Z,96024.16
2018-04-14T15:19:31.723Z,96015.70
2018-04-14T15:22:01.233Z,96016.39
2018-04-14T15:24:30.750Z,96012.84
2018-04-14T15:27:00.264Z,96016.44
2018-04-14T15:29:29.769Z,96019.73
2018-04-14T15:31:59.290Z,96013.50
2018-04-14T15:34:28.834Z,96015.92
2018-04-14T15:36:58.939Z,96009.89
2018-04-14T15:39:28.473Z,96009.80
2018-04-14T15:41:57.985Z,96013.87
2018-04-14T15:44:27.500Z,96013.56
2018-04-14T15:46:57.053Z,96008.03
2018-04-14T15:49:26.742Z,96005.89
2018-04-14T15:51:56.264Z,96012.17
2018-04-14T15:54:25.792Z,96005.66
2018-04-14T15:56:55.716Z,96009.86
2018-04-14T15:59:25.686Z,96002.06
2018-04-14T16:01:55.740Z,96010.30
2018-04-14T16:04:25.639Z,96004.24
2018-04-14T16:06:55.340Z,96001.98
2018-04-14T16:09:24.897Z,96002.69
2018-04-14T16:11:54.588Z,96004.92
2018-04-14T16:14:24.502Z,96002.97
2018-04-14T16:16:54.431Z,96004.00
2018-04-14T16:19:23.703Z,96003.90
2018-04-14T16:21:52.728Z,96002.70
2018-04-14T16:24:22.007Z,96002.09
2018-04-14T16:26:51.923Z,96000.43
2018-04-14T16:29:21.474Z,95994.76
2018-04-14T16:31:50.982Z,95992.39
2018-04-14T16:34:20.492Z,95992.77
2018-04-14T16:36:50.030Z,95998.48
2018-04-14T16:39:19.534Z,95984.95
2018-04-14T16:41:49.069Z,95992.31
2018-04-14T16:44:18.992Z,95989.69
2018-04-14T16:46:48.896Z,95983.22
2018-04-14T16:49:18.843Z,95990.29
2018-04-14T16:51:48.528Z,95985.09
2018-04-14T16:54:18.432Z,95984.23
2018-04-14T16:56:47.934Z,95984.16
2018-04-14T16:59:17.446Z,95973.61
2018-04-14T17:01:47.378Z,95972.75
2018-04-14T17:04:17.284Z,95967.52
2018-04-14T17:06:47.199Z,95969.66
2018-04-14T17:09:17.071Z,95959.17
2018-04-14T17:11:46.579Z,95960.69
2018-04-14T17:14:16.101Z,95964.40
2018-04-14T17:16:45.599Z,95966.55
2018-04-14T17:19:15.121Z,95971.52
2018-04-14T17:21:44.626Z,95969.92
2018-04-14T17:24:14.125Z,95964.84
2018-04-14T17:26:43.620Z,95968.39
2018-04-14T17:29:13.135Z,95965.20
2018-04-14T17:31:43.384Z,95961.17
2018-04-14T17:34:12.928Z,95966.19
2018-04-14T17:36:42.452Z,95970.09
2018-04-14T17:39:11.943Z,95966.05
2018-04-14T17:41:41.125Z,95968.36
2018-04-14T17:44:10.631Z,95967.41
2018-04-14T17:46:40.135Z,95967.05
2018-04-14T17:49:09.811Z,95969.83
2018-04-14T17:51:39.317Z,95961.92
2018-04-14T17:54:09.223Z,95964.02
2018-04-14T17:56:38.747Z,95974.05
2018-04-14T17:59:08.657Z,95975.72
2018-04-14T18:01:38.207Z,95978.27
2018-04-14T18:04:07.714Z,95989.56
2018-04-14T18:06:37.243Z,95994.30
2018-04-14T18:09:05.849Z,96001.84
2018-04-14T18:11:35.019Z,96000.22
2018-04-14T18:14:04.531Z,96003.56
2018-04-14T18:16:34.057Z,96006.38
2018-04-14T18:19:03.559Z,96003.45
2018-04-14T18:21:33.067Z,96009.55
2018-04-14T18:24:02.559Z,96018.90
2018-04-14T18:26:32.072Z,96024.47
2018-04-14T18:29:01.608Z,96026.89
2018-04-14T18:31:31.513Z,96028.14
2018-04-14T18:34:01.409Z,96028.39
2018-04-14T18:36:30.908Z,96025.77
2018-04-14T18:39:00.403Z,96028.15
2018-04-14T18:41:29.908Z,96032.47
2018-04-14T18:43:59.412Z,96030.77
2018-04-14T18:46:28.691Z,96029.53
2018-04-14T18:48:58.244Z,96036.12
2018-04-14T18:51:27.750Z,96034.47
2018-04-14T18:53:57.238Z,96035.07
2018-04-14T18:56:26.752Z,96043.55
2018-04-14T18:58:56.246Z,96044.28
2018-04-14T19:01:25.744Z,96041.90
2018-04-14T19:03:55.265Z,96049.51
2018-04-14T19:06:24.775Z,96042.66
2018-04-14T19:08:54.286Z,96043.22
2018-04-14T19:11:23.800Z,96050.63
2018-04-14T19:13:53.316Z,96047.73
2018-04-14T19:16:23.212Z,96048.05
2018-04-14T19:18:52.723Z,96051.50
2018-04-14T19:21:22.222Z,96049.38
2018-04-14T19:23:51.913Z,96059.14
2018-04-14T19:26:21.621Z,96058.22
2018-04-14T19:28:51.176Z,96059.70
2018-04-14T19:31:21.057Z,96057.64
2018-04-14T19:33:50.749Z,96055.63
2018-04-14T19:36:20.269Z,96057.92
2018-04-14T19:38:49.840Z,96059.75
2018-04-14T19:41:19.373Z,96055.05
2018-04-14T19:43:48.884Z,96055.30
2018-04-14T19:46:18.373Z,96048.46
2018-04-14T19:48:47.878Z,96046.16
2018-04-14T19:51:17.451Z,96042.53
2018-04-14T19:53:46.977Z,96037.75
2018-04-14T19:56:16.510Z,96033.34
2018-04-14T19:58:46.013Z,96031.38
2018-04-14T20:01:15.552Z,96024.80
2018-04-14T20:03:45.474Z,96023.83
2018-04-14T20:06:15.196Z,96017.56
2018-04-14T20:08:45.093Z,96008.00
2018-04-14T20:11:15.032Z,95996.30
2018-04-14T20:13:44.917Z,95988.94
2018-04-14T20:16:14.417Z,95986.70
2018-04-14T20:18:43.943Z,95979.33
2018-04-14T20:21:13.834Z,95971.20
2018-04-14T20:23:43.341Z,95970.22
2018-04-14T20:26:12.841Z,95975.11
2018-04-14T20:28:42.354Z,95969.47
2018-04-14T20:31:11.908Z,95963.06
2018-04-14T20:33:41.601Z,95956.93
2018-04-14T20:36:11.510Z,95957.55
2018-04-14T20:38:41.404Z,95962.58
2018-04-14T20:41:10.911Z,95969.14
2018-04-14T20:43:40.605Z,95965.36
2018-04-14T20:46:10.110Z,95967.05
2018-04-14T20:48:39.476Z,95964.61
2018-04-14T20:51:08.984Z,95973.48
2018-04-14T20:53:38.474Z,95968.89
2018-04-14T20:56:07.745Z,95970.73
2018-04-14T20:58:37.646Z,95968.47
2018-04-14T21:01:07.163Z,95979.74
2018-04-14T21:03:36.655Z,95974.18
2018-04-14T21:06:06.147Z,95970.73
2018-04-14T21:08:35.656Z,95974.23
2018-04-14T21:11:05.163Z,95961.84
2018-04-14T21:13:34.677Z,95963.74
2018-04-14T21:16:04.190Z,95963.45
2018-04-14T21:18:33.693Z,95951.30
2018-04-14T21:21:03.190Z,95957.95
2018-04-14T21:23:32.700Z,95962.13
2018-04-14T21:26:02.219Z,95954.50
2018-04-14T21:28:31.725Z,95950.88
2018-04-14T21:31:01.629Z,95952.64
2018-04-14T21:33:31.128Z,95951.73
2018-04-14T21:36:00.639Z,95954.79
2018-04-14T21:38:30.161Z,95949.83
2018-04-14T21:40:59.664Z,95943.28
2018-04-14T21:43:29.177Z,95938.81
2018-04-14T21:45:59.057Z,95934.24
2018-04-14T21:48:28.562Z,95936.28
2018-04-14T21:50:57.859Z,95936.88
2018-04-14T21:53:27.360Z,95932.63
2018-04-14T21:55:56.853Z,95928.10
2018-04-14T21:58:26.359Z,95925.23
2018-04-14T22:00:55.863Z,95921.91
2018-04-14T22:03:25.375Z,95918.53
2018-04-14T22:05:54.906Z,95922.30
2018-04-14T22:08:24.409Z,95911.19
2018-04-14T22:10:53.913Z,95906.95
2018-04-14T22:13:23.446Z,95899.13
2018-04-14T22:15:53.366Z,95907.17
2018-04-14T22:18:23.280Z,95901.23
2018-04-14T22:20:52.954Z,95902.54
2018-04-14T22:23:22.640Z,95893.05
2018-04-14T22:25:52.151Z,95892.13
2018-04-14T22:28:21.654Z,95902.14
2018-04-14T22:30:51.388Z,95900.84
2018-04-14T22:33:20.923Z,95903.52
2018-04-14T22:35:50.438Z,95896.67
2018-04-14T22:38:20.380Z,95895.42
2018-04-14T22:40:49.884Z,95893.73
2018-04-14T22:43:19.050Z,95891.89
2018-04-14T22:45:48.978Z,95899.59
2018-04-14T22:48:18.866Z,95898.81
2018-04-14T22:50:48.380Z,95895.22
2018-04-14T22:53:18.280Z,95889.05
2018-04-14T22:55:47.780Z,95888.60
2018-04-14T22:58:17.282Z,95894.02
2018-04-14T23:00:46.790Z,95892.85
2018-04-14T23:03:16.326Z,95895.32
2018-04-14T23:05:46.230Z,95888.10
2018-04-14T23:08:15.728Z,95892.52
2018-04-14T23:10:45.249Z,95890.45
2018-04-14T23:13:15.160Z,95896.72
2018-04-14T23:15:45.050Z,95905.65
2018-04-14T23:18:14.550Z,95898.18
2018-04-14T23:20:44.062Z,95903.16
2018-04-14T23:23:13.600Z,95904.54
2018-04-14T23:25:43.267Z,95911.44
2018-04-14T23:28:12.793Z,95906.95
2018-04-14T23:30:42.300Z,95906.02
2018-04-14T23:33:11.464Z,95906.79
2018-04-14T23:35:40.982Z,95912.70
2018-04-14T23:38:10.484Z,95907.25
2018-04-14T23:40:39.973Z,95905.16
2018-04-14T23:43:09.509Z,95902.23
2018-04-14T23:45:39.010Z,95904.41
2018-04-14T23:48:08.547Z,95905.56
2018-04-14T23:50:38.442Z,95907.16
2018-04-14T23:53:07.941Z,95916.56
2018-04-14T23:55:37.473Z,95918.52
2018-04-14T23:58:07.365Z,95919.07
